Saturday, May 28, 2016
22:12 UTC
  |  Log In   |  Register Free
Airport Search:

Pocono Mountains Municipal Airport
(KMPO)

Pocono Mountains Municipal Airport Diagram
No Airport Diagram Available

FAA data valid effective Mar 31 2016 - May 26 2016 (unless otherwise noted).

 
 
 
 
 
 
 
 
 
 
 
 
 
 
Current Aviation Weather for KMPO

Weather Summary


The most recent METAR observation for MPO was updated at: 12:53 UTC
METAR for KMPO is not available. Closest METAR is for KAVP
KMPO  (most recent observation was updatred at 28:21 UTC)
282153Z AUTO VRB03KT 10SM FEW045 BKN095 22/18 A3017 RMK AO2 RAE32 SLP208 P0006 T02170178 TSNO

KAVP  (19.6 nm SE)   (most recent observation was updated at 28:21 UTC)
282154Z 17007KT 10SM BKN110 29/18 A3010 RMK AO2 SLP184 T02890183

KABE  (29.3 nm NE)   (most recent observation was updated at 28:21 UTC)
282151Z 22008KT 10SM SCT055 BKN100 32/19 A3008 RMK AO2 LTG DSNT NE SLP181 T03170194 $

TAF for KMPO is not available.
KAVP  (19.6 nm SE)   (most recent observation was updatred at 28:21 UTC)
AMD 282107Z 2821/2918 33006KT P6SM BKN050 TEMPO 2821/2823 TS BKN050CB FM290000 21003KT P6SM BKN250 FM291700 22008KT P6SM BKN050


KABE  (29.3 nm NE)   (most recent observation was updatred at 28:17 UTC)
281741Z 2818/2918 21010KT P6SM SCT050 FM290000 22004KT P6SM SKC FM290800 00000KT 5SM BR SKC FM291300 21004KT P6SM SKC


GlobalAir.com is loading additional information.
 Current Weather at MPO
72.0 F° (22.2 C°)

Northeast winds at 9.2 mph
Pressure:
30.18 in
Humidity:
76%
Wind:
Northeast at 9.2 mph
Dew Point:
64.0 F° (17.8 C°)
Visibility:
10.00 mi
MPO NOAA Radar




Find All Airport Services Find A Hotel Find A Rental Car Find A Golf Course Find A Restaurant $100 Hamburger



Airport Weather Forecast for KMPO

Translated METAR for KMPO (2153 UTC)
METAR:
KMPO 282153Z AUTO VRB03KT 10SM FEW045 BKN095 22/18 A3017 RMK AO2 RAE32 SLP208 P0006 T02170178 TSNO
Conditions at:
KMPO (Pocono Mountains Muni, PA) observed 2153 UTC 28 May 2016
Temperature:
22°C (71.6°F)
Dewpoint:
18°C (64.4°F) [RH = 78.1]
Pressure:
30.17 inches Hg (1021.7 mb)
pressure at sea level is 208 in Hg
Winds:
variable wind direction at 3.5 mph (3 knots: 1.5 m/s)
Visibility:
10 mile(s)
Ceiling:
9,500 feet AGL
Clouds:
Few Clouds at 4,500 feet AGL
Broken Cloud Cover at 9,500 feet AGL
Remarks:
site is un-manned
site is automated and HAS a precipitation sensor

Translated TAF for KAVP (Wilkes-Barre/Scranton Intl, PA) (2107 UTC)
TAF text:
KAVP 282107Z 2821/2918 33006KT P6SM BKN050
Forecast period:
Saturday May 28 2016 21:00 UTC - Sunday May 29 2016 18:00 UTC
Forecast type:
FROM: standard forecast or significant change
Winds:
from the NNW (330 degrees) at 6.9 mph (6 knots: 3.1 m/s)
Visibility:
6 or more mile(s) (9.7+ km)
Ceiling:
5,000 feet AGL
Clouds:
Broken Cloud Cover at 5,000 feet AGL
Weather:
no significant weather observed at this time
TAF text:
2821/2823 TS BKN050CB
Forecast period:
Sunday May 29 2016 21:00 UTC - Sunday May 29 2016 23:00 UTC
Forecast type:
FROM: standard forecast or significant change
Winds:
Visibility:
Ceiling:
Clouds:
Weather:
Moderate Thunderstorm
TAF text:
FM290000 21003KT P6SM BKN250
Forecast period:
Sunday May 29 2016 00:00 UTC - Sunday May 29 2016 17:00 UTC
Forecast type:
FROM: standard forecast or significant change
Winds:
from the SSW (210 degrees) at 3.5 mph (3 knots: 1.5 m/s)
Visibility:
6 or more mile(s) (9.7+ km)
Ceiling:
25,000 feet AGL
Clouds:
Broken Cloud Cover at 25,000 feet AGL
Weather:
no significant weather observed at this time
TAF text:
FM291700 22008KT P6SM BKN050
Forecast period:
Sunday May 29 2016 17:00 UTC - Sunday May 29 2016 18:00 UTC
Forecast type:
FROM: standard forecast or significant change
Winds:
from the SW (220 degrees) at 9.2 mph (8 knots: 4.1 m/s)
Visibility:
6 or more mile(s) (9.7+ km)
Ceiling:
5,000 feet AGL
Clouds:
Broken Cloud Cover at 5,000 feet AGL
Weather:
no significant weather observed at this time
FBO's on the Field
FBO Company Facility Photos Services Transportation Aviation Fuel Prices: Prices include tax
Catering Weather Repair Courtesy Rental Type 100LL JetA JetA+ MOGAS 8087
 
Pocono Mountains Municipal Airport Authority

This FBO has not yet been rated
FS:Phillips 66
Last Updated: May-23
Login to update fuel prices
SS:
Contact Pocono Mountains Municipal Airport AuthorityMore FBO Information
 
Add another FBO Facility Photos Catering Weather Repair Courtesy Rental Type 100LL JetA JetA+ MOGAS 8087
Services Transportation Aviation Fuel Prices: Prices include tax


model-print
model-print
model-print
model-print